sensor_id;sensor_type;location;lat;lon;timestamp;pressure;altitude;pressure_sealevel;temperature;humidity
59104;BME280;51449;51.676;5.812;2023-05-12T00:02:01;101519.53;;;13.59;85.59
59104;BME280;51449;51.676;5.812;2023-05-12T00:04:24;101502.75;;;13.56;85.59
59104;BME280;51449;51.676;5.812;2023-05-12T00:06:46;101506.69;;;13.55;86.13
59104;BME280;51449;51.676;5.812;2023-05-12T00:09:08;101507.38;;;13.52;85.62
59104;BME280;51449;51.676;5.812;2023-05-12T00:11:30;101507.22;;;13.48;85.65
59104;BME280;51449;51.676;5.812;2023-05-12T00:13:53;101516.19;;;13.45;85.73
59104;BME280;51449;51.676;5.812;2023-05-12T00:16:16;101511.34;;;13.42;85.66
59104;BME280;51449;51.676;5.812;2023-05-12T00:18:39;101513.63;;;13.40;85.77
59104;BME280;51449;51.676;5.812;2023-05-12T00:21:01;101508.78;;;13.37;85.99
59104;BME280;51449;51.676;5.812;2023-05-12T00:23:22;101506.00;;;13.37;85.87
59104;BME280;51449;51.676;5.812;2023-05-12T00:25:44;101503.25;;;13.37;86.21
59104;BME280;51449;51.676;5.812;2023-05-12T00:28:06;101500.00;;;13.35;86.20
59104;BME280;51449;51.676;5.812;2023-05-12T00:30:28;101501.59;;;13.36;86.17
59104;BME280;51449;51.676;5.812;2023-05-12T00:32:49;101506.66;;;13.34;86.69
59104;BME280;51449;51.676;5.812;2023-05-12T00:35:11;101502.28;;;13.33;86.54
59104;BME280;51449;51.676;5.812;2023-05-12T00:37:33;101499.84;;;13.31;86.79
59104;BME280;51449;51.676;5.812;2023-05-12T00:39:55;101498.06;;;13.26;86.60
59104;BME280;51449;51.676;5.812;2023-05-12T00:42:16;101495.16;;;13.23;86.53
59104;BME280;51449;51.676;5.812;2023-05-12T00:44:38;101500.56;;;13.19;86.98
59104;BME280;51449;51.676;5.812;2023-05-12T00:47:00;101493.38;;;13.18;86.83
59104;BME280;51449;51.676;5.812;2023-05-12T00:49:25;101489.34;;;13.16;87.10
59104;BME280;51449;51.676;5.812;2023-05-12T00:51:47;101490.50;;;13.15;87.29
59104;BME280;51449;51.676;5.812;2023-05-12T00:54:09;101488.84;;;13.14;87.19
59104;BME280;51449;51.676;5.812;2023-05-12T00:56:33;101487.25;;;13.13;86.66
59104;BME280;51449;51.676;5.812;2023-05-12T00:59:01;101487.75;;;13.06;86.87
59104;BME280;51449;51.676;5.812;2023-05-12T01:01:23;101483.22;;;13.01;87.04
59104;BME280;51449;51.676;5.812;2023-05-12T01:03:47;101492.69;;;13.00;87.41
59104;BME280;51449;51.676;5.812;2023-05-12T01:06:50;101488.28;;;12.99;87.10
59104;BME280;51449;51.676;5.812;2023-05-12T01:09:15;101486.50;;;12.95;87.34
59104;BME280;51449;51.676;5.812;2023-05-12T01:11:38;101475.81;;;12.93;87.55
59104;BME280;51449;51.676;5.812;2023-05-12T01:14:00;101488.34;;;12.91;87.63
59104;BME280;51449;51.676;5.812;2023-05-12T01:16:25;101480.84;;;12.91;87.73
59104;BME280;51449;51.676;5.812;2023-05-12T01:18:55;101474.34;;;12.87;88.08
59104;BME280;51449;51.676;5.812;2023-05-12T01:21:18;101477.13;;;12.87;88.09
59104;BME280;51449;51.676;5.812;2023-05-12T01:23:45;101472.75;;;12.86;88.09
59104;BME280;51449;51.676;5.812;2023-05-12T01:26:12;101468.22;;;12.81;88.13
59104;BME280;51449;51.676;5.812;2023-05-12T01:28:35;101469.38;;;12.80;88.37
59104;BME280;51449;51.676;5.812;2023-05-12T01:30:58;101464.63;;;12.81;88.30
59104;BME280;51449;51.676;5.812;2023-05-12T01:33:22;101460.09;;;12.76;88.44
59104;BME280;51449;51.676;5.812;2023-05-12T01:35:43;101459.63;;;12.74;88.59
59104;BME280;51449;51.676;5.812;2023-05-12T01:38:05;101453.28;;;12.74;88.58
59104;BME280;51449;51.676;5.812;2023-05-12T01:40:31;101459.16;;;12.72;88.28
59104;BME280;51449;51.676;5.812;2023-05-12T01:42:53;101464.19;;;12.70;88.50
59104;BME280;51449;51.676;5.812;2023-05-12T01:45:15;101451.19;;;12.71;88.61
59104;BME280;51449;51.676;5.812;2023-05-12T01:47:37;101452.00;;;12.71;88.63
59104;BME280;51449;51.676;5.812;2023-05-12T01:50:01;101453.63;;;12.72;88.68
59104;BME280;51449;51.676;5.812;2023-05-12T01:52:23;101453.13;;;12.70;88.84
59104;BME280;51449;51.676;5.812;2023-05-12T01:54:45;101455.09;;;12.70;88.86
59104;BME280;51449;51.676;5.812;2023-05-12T01:57:08;101453.97;;;12.71;88.61
59104;BME280;51449;51.676;5.812;2023-05-12T01:59:31;101451.19;;;12.71;89.13
59104;BME280;51449;51.676;5.812;2023-05-12T02:01:54;101447.59;;;12.70;88.93
59104;BME280;51449;51.676;5.812;2023-05-12T02:04:22;101444.22;;;12.64;89.04
59104;BME280;51449;51.676;5.812;2023-05-12T02:06:45;101444.22;;;12.64;88.81
59104;BME280;51449;51.676;5.812;2023-05-12T02:09:06;101446.66;;;12.66;89.22
59104;BME280;51449;51.676;5.812;2023-05-12T02:11:28;101447.00;;;12.64;89.29
59104;BME280;51449;51.676;5.812;2023-05-12T02:13:50;101440.16;;;12.62;89.37
59104;BME280;51449;51.676;5.812;2023-05-12T02:16:12;101447.31;;;12.63;89.02
59104;BME280;51449;51.676;5.812;2023-05-12T02:18:35;101446.50;;;12.62;89.22
59104;BME280;51449;51.676;5.812;2023-05-12T02:20:59;101436.59;;;12.61;89.24
59104;BME280;51449;51.676;5.812;2023-05-12T02:23:22;101442.13;;;12.61;89.50
59104;BME280;51449;51.676;5.812;2023-05-12T02:25:44;101431.06;;;12.61;89.32
59104;BME280;51449;51.676;5.812;2023-05-12T02:28:07;101433.03;;;12.61;89.50
59104;BME280;51449;51.676;5.812;2023-05-12T02:30:32;101427.50;;;12.61;89.29
59104;BME280;51449;51.676;5.812;2023-05-12T02:32:53;101427.50;;;12.61;89.99
59104;BME280;51449;51.676;5.812;2023-05-12T02:35:16;101421.97;;;12.61;89.63
59104;BME280;51449;51.676;5.812;2023-05-12T02:37:38;101420.34;;;12.60;89.86
59104;BME280;51449;51.676;5.812;2023-05-12T02:39:59;101421.50;;;12.59;90.05
59104;BME280;51449;51.676;5.812;2023-05-12T02:42:21;101419.66;;;12.63;90.26
59104;BME280;51449;51.676;5.812;2023-05-12T02:44:43;101414.13;;;12.63;90.13
59104;BME280;51449;51.676;5.812;2023-05-12T02:47:05;101411.84;;;12.65;90.35
59104;BME280;51449;51.676;5.812;2023-05-12T02:49:27;101412.00;;;12.69;89.97
59104;BME280;51449;51.676;5.812;2023-05-12T02:51:49;101415.09;;;12.67;90.25
59104;BME280;51449;51.676;5.812;2023-05-12T02:54:10;101408.44;;;12.68;90.23
59104;BME280;51449;51.676;5.812;2023-05-12T02:56:32;101416.72;;;12.68;90.30
59104;BME280;51449;51.676;5.812;2023-05-12T02:58:54;101413.97;;;12.68;90.31
59104;BME280;51449;51.676;5.812;2023-05-12T03:01:16;101411.00;;;12.73;90.73
59104;BME280;51449;51.676;5.812;2023-05-12T03:03:38;101416.88;;;12.72;90.68
59104;BME280;51449;51.676;5.812;2023-05-12T03:06:00;101401.88;;;12.73;90.73
59104;BME280;51449;51.676;5.812;2023-05-12T03:08:22;101407.09;;;12.74;90.65
59104;BME280;51449;51.676;5.812;2023-05-12T03:10:43;101407.91;;;12.75;90.77
59104;BME280;51449;51.676;5.812;2023-05-12T03:13:05;101404.31;;;12.74;90.86
59104;BME280;51449;51.676;5.812;2023-05-12T03:15:28;101402.84;;;12.77;91.08
59104;BME280;51449;51.676;5.812;2023-05-12T03:17:49;101402.03;;;12.76;91.25
59104;BME280;51449;51.676;5.812;2023-05-12T03:20:11;101405.28;;;12.78;91.45
59104;BME280;51449;51.676;5.812;2023-05-12T03:22:34;101398.94;;;12.78;91.63
59104;BME280;51449;51.676;5.812;2023-05-12T03:24:56;101390.66;;;12.78;92.04
59104;BME280;51449;51.676;5.812;2023-05-12T03:27:18;101394.34;;;12.82;91.62
59104;BME280;51449;51.676;5.812;2023-05-12T03:29:40;101396.78;;;12.83;92.13
59104;BME280;51449;51.676;5.812;2023-05-12T03:32:02;101388.19;;;12.85;91.95
59104;BME280;51449;51.676;5.812;2023-05-12T03:34:24;101398.41;;;12.84;91.71
59104;BME280;51449;51.676;5.812;2023-05-12T03:36:48;101387.00;;;12.86;92.30
59104;BME280;51449;51.676;5.812;2023-05-12T03:39:10;101387.81;;;12.87;92.28
59104;BME280;51449;51.676;5.812;2023-05-12T03:41:33;101388.31;;;12.89;92.04
59104;BME280;51449;51.676;5.812;2023-05-12T03:43:55;101396.59;;;12.89;92.27
59104;BME280;51449;51.676;5.812;2023-05-12T03:46:17;101389.91;;;12.90;92.39
59104;BME280;51449;51.676;5.812;2023-05-12T03:48:39;101384.84;;;12.92;92.38
59104;BME280;51449;51.676;5.812;2023-05-12T03:51:02;101383.72;;;12.93;92.16
59104;BME280;51449;51.676;5.812;2023-05-12T03:53:24;101380.13;;;12.92;92.43
59104;BME280;51449;51.676;5.812;2023-05-12T03:55:46;101384.84;;;12.92;92.37
59104;BME280;51449;51.676;5.812;2023-05-12T03:58:09;101378.19;;;12.93;92.36
59104;BME280;51449;51.676;5.812;2023-05-12T04:00:31;101384.84;;;12.92;92.57
59104;BME280;51449;51.676;5.812;2023-05-12T04:02:53;101383.72;;;12.93;92.68
59104;BME280;51449;51.676;5.812;2023-05-12T04:05:15;101386.50;;;12.93;92.89
59104;BME280;51449;51.676;5.812;2023-05-12T04:07:37;101382.25;;;12.95;93.03
59104;BME280;51449;51.676;5.812;2023-05-12T04:09:59;101388.38;;;13.01;92.79
59104;BME280;51449;51.676;5.812;2023-05-12T04:12:21;101386.41;;;13.01;92.74
59104;BME280;51449;51.676;5.812;2023-05-12T04:14:44;101379.41;;;13.04;92.73
59104;BME280;51449;51.676;5.812;2023-05-12T04:17:06;101377.25;;;13.10;93.01
59104;BME280;51449;51.676;5.812;2023-05-12T04:19:28;101389.25;;;13.14;92.70
59104;BME280;51449;51.676;5.812;2023-05-12T04:21:49;101380.81;;;13.10;92.85
59104;BME280;51449;51.676;5.812;2023-05-12T04:24:11;101380.94;;;13.14;92.75
59104;BME280;51449;51.676;5.812;2023-05-12T04:26:34;101389.41;;;13.17;92.81
59104;BME280;51449;51.676;5.812;2023-05-12T04:28:55;101395.22;;;13.24;92.93
59104;BME280;51449;51.676;5.812;2023-05-12T04:31:17;101395.69;;;13.26;92.91
59104;BME280;51449;51.676;5.812;2023-05-12T04:33:39;101384.75;;;13.30;92.73
59104;BME280;51449;51.676;5.812;2023-05-12T04:36:01;101387.66;;;13.34;92.80
59104;BME280;51449;51.676;5.812;2023-05-12T04:38:22;101388.59;;;13.38;92.58
59104;BME280;51449;51.676;5.812;2023-05-12T04:40:44;101395.09;;;13.42;92.77
59104;BME280;51449;51.676;5.812;2023-05-12T04:43:06;101386.41;;;13.43;92.90
59104;BME280;51449;51.676;5.812;2023-05-12T04:45:28;101389.66;;;13.45;92.69
59104;BME280;51449;51.676;5.812;2023-05-12T04:47:50;101385.88;;;13.50;92.84
59104;BME280;51449;51.676;5.812;2023-05-12T04:50:12;101395.63;;;13.56;92.83
59104;BME280;51449;51.676;5.812;2023-05-12T04:52:34;101401.63;;;13.58;92.37
59104;BME280;51449;51.676;5.812;2023-05-12T04:54:56;101402.91;;;13.61;92.59
59104;BME280;51449;51.676;5.812;2023-05-12T04:57:19;101392.28;;;13.63;92.43
59104;BME280;51449;51.676;5.812;2023-05-12T04:59:40;101407.38;;;13.65;92.36
59104;BME280;51449;51.676;5.812;2023-05-12T05:02:03;101412.50;;;13.63;92.62
59104;BME280;51449;51.676;5.812;2023-05-12T05:04:25;101418.47;;;13.65;92.29
59104;BME280;51449;51.676;5.812;2023-05-12T05:06:46;101420.56;;;13.68;92.51
59104;BME280;51449;51.676;5.812;2023-05-12T05:09:09;101411.91;;;13.70;92.38
59104;BME280;51449;51.676;5.812;2023-05-12T05:11:31;101431.44;;;13.74;92.21
59104;BME280;51449;51.676;5.812;2023-05-12T05:13:53;101435.16;;;13.78;92.18
59104;BME280;51449;51.676;5.812;2023-05-12T05:16:15;101440.34;;;13.79;92.38
59104;BME280;51449;51.676;5.812;2023-05-12T05:18:37;101440.94;;;13.85;91.95
59104;BME280;51449;51.676;5.812;2023-05-12T05:20:59;101441.06;;;13.88;92.03
59104;BME280;51449;51.676;5.812;2023-05-12T05:23:21;101446.28;;;13.90;91.87
59104;BME280;51449;51.676;5.812;2023-05-12T05:25:43;101441.53;;;13.90;91.90
59104;BME280;51449;51.676;5.812;2023-05-12T05:28:05;101446.06;;;13.95;91.74
59104;BME280;51449;51.676;5.812;2023-05-12T05:30:28;101445.84;;;14.00;92.03
59104;BME280;51449;51.676;5.812;2023-05-12T05:32:51;101454.28;;;14.04;91.88
59104;BME280;51449;51.676;5.812;2023-05-12T05:35:14;101467.09;;;14.08;91.88
59104;BME280;51449;51.676;5.812;2023-05-12T05:37:40;101456.50;;;14.10;92.08
59104;BME280;51449;51.676;5.812;2023-05-12T05:40:02;101462.28;;;14.18;91.71
59104;BME280;51449;51.676;5.812;2023-05-12T05:42:24;101465.16;;;14.21;91.46
59104;BME280;51449;51.676;5.812;2023-05-12T05:44:46;101468.06;;;14.25;91.62
59104;BME280;51449;51.676;5.812;2023-05-12T05:47:09;101471.78;;;14.29;91.45
59104;BME280;51449;51.676;5.812;2023-05-12T05:49:30;101468.44;;;14.35;91.34
59104;BME280;51449;51.676;5.812;2023-05-12T05:51:54;101480.94;;;14.42;90.91
59104;BME280;51449;51.676;5.812;2023-05-12T05:54:16;101481.97;;;14.49;90.66
59104;BME280;51449;51.676;5.812;2023-05-12T05:56:39;101487.00;;;14.56;90.41
59104;BME280;51449;51.676;5.812;2023-05-12T05:59:01;101485.50;;;14.59;90.15
59104;BME280;51449;51.676;5.812;2023-05-12T06:01:26;101485.97;;;14.61;90.20
59104;BME280;51449;51.676;5.812;2023-05-12T06:03:48;101491.63;;;14.64;89.95
59104;BME280;51449;51.676;5.812;2023-05-12T06:06:10;101492.09;;;14.66;89.70
59104;BME280;51449;51.676;5.812;2023-05-12T06:08:32;101490.59;;;14.69;89.43
59104;BME280;51449;51.676;5.812;2023-05-12T06:10:54;101501.44;;;14.74;89.37
59104;BME280;51449;51.676;5.812;2023-05-12T06:13:16;101503.53;;;14.77;89.08
59104;BME280;51449;51.676;5.812;2023-05-12T06:15:38;101504.13;;;14.83;89.25
59104;BME280;51449;51.676;5.812;2023-05-12T06:18:00;101513.34;;;14.87;88.89
59104;BME280;51449;51.676;5.812;2023-05-12T06:20:22;101520.53;;;14.88;88.75
59104;BME280;51449;51.676;5.812;2023-05-12T06:22:43;101519.84;;;14.91;88.68
59104;BME280;51449;51.676;5.812;2023-05-12T06:25:07;101517.88;;;14.91;88.35
59104;BME280;51449;51.676;5.812;2023-05-12T06:27:29;101521.91;;;14.94;87.95
59104;BME280;51449;51.676;5.812;2023-05-12T06:29:51;101527.22;;;14.99;87.96
59104;BME280;51449;51.676;5.812;2023-05-12T06:32:13;101526.56;;;15.02;87.83
59104;BME280;51449;51.676;5.812;2023-05-12T06:34:36;101533.00;;;15.06;87.82
59104;BME280;51449;51.676;5.812;2023-05-12T06:36:58;101537.28;;;15.16;87.78
59104;BME280;51449;51.676;5.812;2023-05-12T06:39:20;101532.91;;;15.27;87.70
59104;BME280;51449;51.676;5.812;2023-05-12T06:41:41;101539.56;;;15.38;87.62
59104;BME280;51449;51.676;5.812;2023-05-12T06:44:13;101540.72;;;15.50;87.54
59104;BME280;51449;51.676;5.812;2023-05-12T06:46:35;101552.06;;;15.57;86.83
59104;BME280;51449;51.676;5.812;2023-05-12T06:48:57;101558.31;;;15.66;86.63
59104;BME280;51449;51.676;5.812;2023-05-12T06:51:20;101554.97;;;15.73;86.06
59104;BME280;51449;51.676;5.812;2023-05-12T06:53:42;101556.66;;;15.77;84.88
59104;BME280;51449;51.676;5.812;2023-05-12T06:56:04;101569.88;;;15.80;84.19
59104;BME280;51449;51.676;5.812;2023-05-12T06:58:26;101561.28;;;15.86;83.97
59104;BME280;51449;51.676;5.812;2023-05-12T07:00:48;101563.91;;;15.94;83.95
59104;BME280;51449;51.676;5.812;2023-05-12T07:03:10;101573.47;;;16.09;83.81
59104;BME280;51449;51.676;5.812;2023-05-12T07:05:32;101568.56;;;16.18;83.05
59104;BME280;51449;51.676;5.812;2023-05-12T07:07:54;101568.63;;;16.34;82.73
59104;BME280;51449;51.676;5.812;2023-05-12T07:10:16;101559.84;;;16.48;82.41
59104;BME280;51449;51.676;5.812;2023-05-12T07:12:38;101567.94;;;16.53;81.22
59104;BME280;51449;51.676;5.812;2023-05-12T07:15:01;101570.03;;;16.56;78.71
59104;BME280;51449;51.676;5.812;2023-05-12T07:17:23;101568.97;;;16.61;78.00
59104;BME280;51449;51.676;5.812;2023-05-12T07:19:45;101569.22;;;16.72;77.78
59104;BME280;51449;51.676;5.812;2023-05-12T07:22:07;101572.22;;;16.79;76.42
59104;BME280;51449;51.676;5.812;2023-05-12T07:24:29;101569.19;;;16.84;76.10
59104;BME280;51449;51.676;5.812;2023-05-12T07:26:51;101575.66;;;16.88;74.63
59104;BME280;51449;51.676;5.812;2023-05-12T07:29:13;101578.63;;;16.95;73.44
59104;BME280;51449;51.676;5.812;2023-05-12T07:31:35;101572.06;;;17.03;73.42
59104;BME280;51449;51.676;5.812;2023-05-12T07:33:57;101574.75;;;17.16;74.12
59104;BME280;51449;51.676;5.812;2023-05-12T07:36:19;101570.72;;;17.29;73.69
59104;BME280;51449;51.676;5.812;2023-05-12T07:38:42;101578.94;;;17.41;72.05
59104;BME280;51449;51.676;5.812;2023-05-12T07:41:05;101585.56;;;17.52;71.06
59104;BME280;51449;51.676;5.812;2023-05-12T07:43:27;101577.38;;;17.60;69.86
59104;BME280;51449;51.676;5.812;2023-05-12T07:45:48;101582.75;;;17.68;69.48
59104;BME280;51449;51.676;5.812;2023-05-12T07:48:10;101579.88;;;17.81;70.53
59104;BME280;51449;51.676;5.812;2023-05-12T07:50:32;101581.28;;;17.90;70.44
59104;BME280;51449;51.676;5.812;2023-05-12T07:52:55;101591.47;;;18.02;70.59
59104;BME280;51449;51.676;5.812;2023-05-12T07:55:17;101585.63;;;18.07;68.80
59104;BME280;51449;51.676;5.812;2023-05-12T07:57:42;101593.75;;;18.16;68.39
59104;BME280;51449;51.676;5.812;2023-05-12T08:00:04;101582.44;;;18.28;68.30
59104;BME280;51449;51.676;5.812;2023-05-12T08:02:33;101594.47;;;18.32;68.15
59104;BME280;51449;51.676;5.812;2023-05-12T08:04:55;101589.69;;;18.33;67.35
59104;BME280;51449;51.676;5.812;2023-05-12T08:07:17;101589.19;;;18.27;67.69
59104;BME280;51449;51.676;5.812;2023-05-12T08:09:38;101595.94;;;18.26;67.43
59104;BME280;51449;51.676;5.812;2023-05-12T08:12:00;101605.78;;;18.20;66.76
59104;BME280;51449;51.676;5.812;2023-05-12T08:14:23;101608.13;;;18.18;67.49
59104;BME280;51449;51.676;5.812;2023-05-12T08:16:46;101613.56;;;18.11;67.56
59104;BME280;51449;51.676;5.812;2023-05-12T08:19:08;101613.56;;;18.11;67.40
59104;BME280;51449;51.676;5.812;2023-05-12T08:21:30;101617.16;;;18.11;66.43
59104;BME280;51449;51.676;5.812;2023-05-12T08:23:52;101619.22;;;18.14;67.10
59104;BME280;51449;51.676;5.812;2023-05-12T08:26:14;101619.13;;;18.11;66.39
59104;BME280;51449;51.676;5.812;2023-05-12T08:28:36;101626.34;;;18.12;66.68
59104;BME280;51449;51.676;5.812;2023-05-12T08:30:57;101616.50;;;18.18;65.76
59104;BME280;51449;51.676;5.812;2023-05-12T08:33:19;101623.31;;;18.21;65.08
59104;BME280;51449;51.676;5.812;2023-05-12T08:35:42;101632.66;;;18.28;64.56
59104;BME280;51449;51.676;5.812;2023-05-12T08:38:04;101621.13;;;18.30;64.72
59104;BME280;51449;51.676;5.812;2023-05-12T08:40:29;101624.41;;;18.35;65.19
59104;BME280;51449;51.676;5.812;2023-05-12T08:45:28;101626.34;;;18.51;66.54
59104;BME280;51449;51.676;5.812;2023-05-12T08:47:52;101630.00;;;18.55;66.54
59104;BME280;51449;51.676;5.812;2023-05-12T08:50:16;101629.25;;;18.58;66.68
59104;BME280;51449;51.676;5.812;2023-05-12T08:52:41;101635.97;;;18.53;65.12
59104;BME280;51449;51.676;5.812;2023-05-12T08:55:04;101637.72;;;18.61;65.74
59104;BME280;51449;51.676;5.812;2023-05-12T08:57:27;101636.22;;;18.68;66.01
59104;BME280;51449;51.676;5.812;2023-05-12T08:59:53;101641.53;;;18.73;65.61
59104;BME280;51449;51.676;5.812;2023-05-12T09:02:16;101632.75;;;18.74;64.98
59104;BME280;51449;51.676;5.812;2023-05-12T09:04:40;101638.72;;;18.73;64.97
59104;BME280;51449;51.676;5.812;2023-05-12T09:07:04;101636.16;;;18.64;65.65
59104;BME280;51449;51.676;5.812;2023-05-12T09:09:30;101645.56;;;18.56;64.16
59104;BME280;51449;51.676;5.812;2023-05-12T09:11:56;101643.94;;;18.55;64.90
59104;BME280;51449;51.676;5.812;2023-05-12T09:14:24;101643.66;;;18.60;65.27
59104;BME280;51449;51.676;5.812;2023-05-12T09:16:49;101648.94;;;18.65;65.23
59104;BME280;51449;51.676;5.812;2023-05-12T09:19:19;101649.75;;;18.66;64.26
59104;BME280;51449;51.676;5.812;2023-05-12T09:21:41;101642.97;;;18.67;63.44
59104;BME280;51449;51.676;5.812;2023-05-12T09:24:05;101649.50;;;18.74;63.50
59104;BME280;51449;51.676;5.812;2023-05-12T09:26:28;101645.34;;;18.84;63.15
59104;BME280;51449;51.676;5.812;2023-05-12T09:28:52;101656.59;;;18.88;61.99
59104;BME280;51449;51.676;5.812;2023-05-12T09:31:19;101653.78;;;18.88;62.47
59104;BME280;51449;51.676;5.812;2023-05-12T09:33:43;101651.06;;;18.91;61.77
59104;BME280;51449;51.676;5.812;2023-05-12T09:36:05;101643.03;;;18.90;61.75
59104;BME280;51449;51.676;5.812;2023-05-12T09:38:27;101657.75;;;18.87;61.44
59104;BME280;51449;51.676;5.812;2023-05-12T09:40:49;101661.47;;;18.94;61.54
59104;BME280;51449;51.676;5.812;2023-05-12T09:43:10;101666.09;;;19.06;62.27
59104;BME280;51449;51.676;5.812;2023-05-12T09:45:36;101667.75;;;19.11;61.63
59104;BME280;51449;51.676;5.812;2023-05-12T09:48:07;101655.34;;;19.08;60.30
59104;BME280;51449;51.676;5.812;2023-05-12T09:50:33;101664.91;;;19.07;60.88
59104;BME280;51449;51.676;5.812;2023-05-12T09:53:07;101673.03;;;19.16;60.31
59104;BME280;51449;51.676;5.812;2023-05-12T09:55:29;101658.97;;;19.32;60.69
59104;BME280;51449;51.676;5.812;2023-05-12T09:57:53;101671.97;;;19.47;59.17
59104;BME280;51449;51.676;5.812;2023-05-12T10:00:17;101661.34;;;19.56;58.58
59104;BME280;51449;51.676;5.812;2023-05-12T10:02:59;101669.16;;;19.70;59.05
59104;BME280;51449;51.676;5.812;2023-05-12T10:05:22;101666.00;;;19.72;58.07
59104;BME280;51449;51.676;5.812;2023-05-12T10:07:47;101665.25;;;19.75;58.15
59104;BME280;51449;51.676;5.812;2023-05-12T10:10:17;101667.59;;;19.73;58.30
59104;BME280;51449;51.676;5.812;2023-05-12T10:12:41;101669.16;;;19.70;58.64
59104;BME280;51449;51.676;5.812;2023-05-12T10:15:05;101681.22;;;19.74;58.84
59104;BME280;51449;51.676;5.812;2023-05-12T10:17:30;101669.44;;;19.65;56.92
59104;BME280;51449;51.676;5.812;2023-05-12T10:19:53;101678.56;;;19.58;57.53
59104;BME280;51449;51.676;5.812;2023-05-12T10:22:18;101674.44;;;19.52;56.78
59104;BME280;51449;51.676;5.812;2023-05-12T10:24:40;101667.78;;;19.60;57.30
59104;BME280;51449;51.676;5.812;2023-05-12T10:27:04;101682.03;;;19.75;57.66
59104;BME280;51449;51.676;5.812;2023-05-12T10:29:27;101685.03;;;19.89;57.64
59104;BME280;51449;51.676;5.812;2023-05-12T10:31:51;101683.47;;;19.92;57.88
59104;BME280;51449;51.676;5.812;2023-05-12T10:34:16;101685.38;;;19.84;57.64
59104;BME280;51449;51.676;5.812;2023-05-12T10:36:46;101689.59;;;19.74;56.41
59104;BME280;51449;51.676;5.812;2023-05-12T10:39:12;101685.06;;;19.66;56.42
59104;BME280;51449;51.676;5.812;2023-05-12T10:41:35;101686.44;;;19.53;55.66
59104;BME280;51449;51.676;5.812;2023-05-12T10:43:57;101686.72;;;19.44;55.88
59104;BME280;51449;51.676;5.812;2023-05-12T10:46:20;101694.09;;;19.56;55.97
59104;BME280;51449;51.676;5.812;2023-05-12T10:48:57;101691.72;;;19.81;55.85
59104;BME280;51449;51.676;5.812;2023-05-12T10:51:26;101679.97;;;19.98;55.82
59104;BME280;51449;51.676;5.812;2023-05-12T10:53:57;101677.63;;;20.00;54.83
59104;BME280;51449;51.676;5.812;2023-05-12T10:56:26;101691.59;;;20.00;54.06
59104;BME280;51449;51.676;5.812;2023-05-12T10:59:19;101691.41;;;20.16;53.96
59104;BME280;51449;51.676;5.812;2023-05-12T11:07:13;101684.88;;;20.65;51.87
59104;BME280;51449;51.676;5.812;2023-05-12T11:09:46;101686.59;;;20.77;51.23
59104;BME280;51449;51.676;5.812;2023-05-12T11:12:20;101683.97;;;20.91;51.01
59104;BME280;51449;51.676;5.812;2023-05-12T11:14:43;101682.16;;;21.10;50.86
59104;BME280;51449;51.676;5.812;2023-05-12T11:17:07;101677.91;;;21.27;50.94
59104;BME280;51449;51.676;5.812;2023-05-12T11:19:30;101676.94;;;21.49;51.67
59104;BME280;51449;51.676;5.812;2023-05-12T11:21:53;101671.50;;;21.74;51.65
59104;BME280;51449;51.676;5.812;2023-05-12T11:24:19;101681.63;;;21.90;50.73
59104;BME280;51449;51.676;5.812;2023-05-12T11:26:41;101674.88;;;21.98;49.89
59104;BME280;51449;51.676;5.812;2023-05-12T11:29:03;101677.75;;;22.12;49.80
59104;BME280;51449;51.676;5.812;2023-05-12T11:31:26;101681.44;;;22.23;50.02
59104;BME280;51449;51.676;5.812;2023-05-12T11:33:48;101682.66;;;22.22;50.77
59104;BME280;51449;51.676;5.812;2023-05-12T11:36:25;101692.66;;;22.23;49.26
59104;BME280;51449;51.676;5.812;2023-05-12T11:38:51;101693.88;;;22.26;48.29
59104;BME280;51449;51.676;5.812;2023-05-12T11:41:13;101694.31;;;22.32;49.07
59104;BME280;51449;51.676;5.812;2023-05-12T11:43:42;101688.28;;;22.30;49.27
59104;BME280;51449;51.676;5.812;2023-05-12T11:46:04;101689.91;;;22.31;48.49
59104;BME280;51449;51.676;5.812;2023-05-12T11:48:33;101689.47;;;22.25;48.50
59104;BME280;51449;51.676;5.812;2023-05-12T11:50:55;101697.13;;;22.35;48.33
59104;BME280;51449;51.676;5.812;2023-05-12T11:53:17;101689.19;;;22.52;49.00
59104;BME280;51449;51.676;5.812;2023-05-12T11:56:06;101696.81;;;22.51;46.58
59104;BME280;51449;51.676;5.812;2023-05-12T11:58:28;101680.31;;;22.39;47.22
59104;BME280;51449;51.676;5.812;2023-05-12T12:00:52;101685.06;;;22.28;47.66
59104;BME280;51449;51.676;5.812;2023-05-12T12:03:15;101696.31;;;22.28;49.00
59104;BME280;51449;51.676;5.812;2023-05-12T12:05:38;101691.91;;;22.27;48.30
59104;BME280;51449;51.676;5.812;2023-05-12T12:08:15;101703.81;;;22.16;49.45
59104;BME280;51449;51.676;5.812;2023-05-12T12:10:37;101698.59;;;22.11;49.23
59104;BME280;51449;51.676;5.812;2023-05-12T12:12:59;101695.41;;;22.13;48.50
59104;BME280;51449;51.676;5.812;2023-05-12T12:15:22;101699.84;;;22.17;48.32
59104;BME280;51449;51.676;5.812;2023-05-12T12:17:43;101702.56;;;22.03;48.34
59104;BME280;51449;51.676;5.812;2023-05-12T12:20:06;101715.69;;;21.92;49.41
59104;BME280;51449;51.676;5.812;2023-05-12T12:22:29;101721.72;;;21.90;49.98
59104;BME280;51449;51.676;5.812;2023-05-12T12:24:55;101718.94;;;21.94;49.74
59104;BME280;51449;51.676;5.812;2023-05-12T12:27:17;101718.19;;;22.04;49.78
59104;BME280;51449;51.676;5.812;2023-05-12T12:29:38;101719.03;;;22.08;48.41
59104;BME280;51449;51.676;5.812;2023-05-12T12:32:00;101723.81;;;22.04;49.51
59104;BME280;51449;51.676;5.812;2023-05-12T12:34:22;101723.78;;;22.00;48.29
59104;BME280;51449;51.676;5.812;2023-05-12T12:36:43;101730.19;;;22.01;47.55
59104;BME280;51449;51.676;5.812;2023-05-12T12:39:07;101724.63;;;22.05;47.22